Time;durP1;ratioP1;P1;durP2;ratioP2;P2;SDS_P1;SDS_P2;PMS_P1;PMS_P2;Temp;Humidity;BMP_temperature;BMP_pressure;BME280_temperature;BME280_humidity;BME280_pressure;Samples;Min_cycle;Max_cycle;Signal;HPM_P1;HPM_P2
2024/01/07 00:00:38;;;;;;;60.20;28.02;;;;;;;6.31;81.18;98500.03;3127316;28;20100;-67
2024/01/07 00:02:10;;;;;;;61.22;29.70;;;;;;;6.23;81.16;98468.53;3126936;28;20049;-67
2024/01/07 00:03:41;;;;;;;63.60;28.80;;;;;;;6.28;81.34;98462.25;3126891;28;20068;-70
2024/01/07 00:05:13;;;;;;;56.25;26.85;;;;;;;6.32;81.41;98491.34;3127154;28;20045;-68
2024/01/07 00:06:44;;;;;;;60.53;29.05;;;;;;;6.31;81.37;98495.69;3127130;28;20064;-68
2024/01/07 00:08:16;;;;;;;57.90;28.42;;;;;;;6.31;81.20;98458.66;3127069;28;20175;-68
2024/01/07 00:09:48;;;;;;;55.75;27.92;;;;;;;6.32;81.46;98435.31;3127065;28;20060;-68
2024/01/07 00:11:20;;;;;;;53.67;27.35;;;;;;;6.35;81.24;98429.97;3126662;28;20052;-68
2024/01/07 00:12:52;;;;;;;58.65;27.77;;;;;;;6.37;81.28;98441.09;3126876;28;20593;-69
2024/01/07 00:14:24;;;;;;;60.72;28.60;;;;;;;6.36;81.43;98415.34;3126920;28;20516;-69
2024/01/07 00:15:55;;;;;;;63.95;28.58;;;;;;;6.35;81.59;98391.19;3126927;28;20537;-68
2024/01/07 00:17:27;;;;;;;58.70;27.23;;;;;;;6.35;81.77;98377.44;3126857;28;20045;-68
2024/01/07 00:18:58;;;;;;;54.60;26.05;;;;;;;6.35;81.86;98372.28;3126952;28;20379;-69
2024/01/07 00:20:30;;;;;;;51.65;26.92;;;;;;;6.37;82.09;98380.78;3127243;28;20143;-69
2024/01/07 00:22:01;;;;;;;55.53;26.90;;;;;;;6.40;82.08;98405.66;3126933;28;20065;-69
2024/01/07 00:23:32;;;;;;;58.78;27.58;;;;;;;6.42;81.82;98420.19;3127296;28;20402;-69
2024/01/07 00:25:05;;;;;;;60.63;27.00;;;;;;;6.46;81.92;98400.19;3126890;28;20126;-69
2024/01/07 00:26:37;;;;;;;54.00;27.70;;;;;;;6.43;82.30;98401.16;3127217;28;20106;-69
2024/01/07 00:28:08;;;;;;;50.13;24.45;;;;;;;6.46;82.27;98411.34;3126748;28;20080;-69
2024/01/07 00:29:40;;;;;;;59.45;25.02;;;;;;;6.47;82.42;98407.84;3126372;28;20522;-67
2024/01/07 00:31:12;;;;;;;46.83;24.63;;;;;;;6.43;82.37;98392.59;3127091;28;20159;-66
2024/01/07 00:32:44;;;;;;;47.28;26.33;;;;;;;6.46;82.69;98405.34;3127093;28;20067;-66
2024/01/07 00:34:15;;;;;;;52.85;25.35;;;;;;;6.42;83.07;98402.09;3127067;28;20052;-66
2024/01/07 00:35:46;;;;;;;48.33;25.83;;;;;;;6.43;83.03;98383.06;3126915;28;20742;-66
2024/01/07 00:37:17;;;;;;;49.83;25.67;;;;;;;6.44;83.23;98384.72;3126833;28;20504;-65
2024/01/07 00:38:49;;;;;;;55.53;25.50;;;;;;;6.44;83.24;98378.72;3126867;28;20061;-65
2024/01/07 00:40:21;;;;;;;53.15;25.45;;;;;;;6.48;83.14;98383.69;3127190;28;20060;-66
2024/01/07 00:41:53;;;;;;;49.67;24.80;;;;;;;6.48;83.36;98378.50;3126899;28;20675;-66
2024/01/07 00:43:24;;;;;;;52.42;24.90;;;;;;;6.49;83.47;98366.41;3127104;28;20072;-66
2024/01/07 00:44:56;;;;;;;57.63;24.52;;;;;;;6.52;83.68;98380.00;3126726;28;20126;-66
2024/01/07 00:46:27;;;;;;;52.15;24.77;;;;;;;6.42;83.57;98363.31;3126957;28;20053;-66
2024/01/07 00:47:59;;;;;;;43.95;23.13;;;;;;;6.55;83.73;98382.44;3127302;28;20498;-67
2024/01/07 00:49:30;;;;;;;47.58;23.30;;;;;;;6.59;83.64;98380.53;3127112;28;20178;-67
2024/01/07 00:51:02;;;;;;;46.05;22.60;;;;;;;6.61;83.67;98370.94;3126935;28;20075;-66
2024/01/07 00:52:33;;;;;;;49.05;24.35;;;;;;;6.63;83.91;98356.19;3127439;28;20080;-67
2024/01/07 00:54:05;;;;;;;47.83;23.23;;;;;;;6.67;83.89;98346.50;3126975;28;20088;-66
2024/01/07 00:55:37;;;;;;;47.17;23.13;;;;;;;6.70;83.66;98344.59;3127041;28;20064;-66
2024/01/07 00:57:12;;;;;;;43.38;22.67;;;;;;;6.42;83.74;98290.03;3127054;28;20055;-67
2024/01/07 00:58:43;;;;;;;50.03;24.15;;;;;;;6.75;83.88;98352.13;3126572;28;20053;-66
2024/01/07 01:00:15;;;;;;;59.10;24.95;;;;;;;6.76;83.83;98346.84;3127184;28;20159;-67
2024/01/07 01:01:46;;;;;;;50.25;25.58;;;;;;;6.77;84.13;98348.53;3126847;28;20118;-67
2024/01/07 01:03:18;;;;;;;50.60;23.60;;;;;;;6.80;83.98;98348.38;3126797;28;20631;-66
2024/01/07 01:04:48;;;;;;;50.67;24.98;;;;;;;6.82;83.87;98337.94;3126894;28;20056;-66
2024/01/07 01:06:20;;;;;;;45.75;22.80;;;;;;;6.84;84.15;98329.19;3126936;28;20049;-67
2024/01/07 01:07:52;;;;;;;46.70;23.92;;;;;;;6.87;84.23;98314.41;3126752;28;20088;-66
2024/01/07 01:09:23;;;;;;;49.50;24.15;;;;;;;6.13;84.36;98187.28;3126872;28;20086;-66
2024/01/07 01:10:56;;;;;;;51.13;24.33;;;;;;;6.89;84.47;98284.09;3126738;28;20048;-68
2024/01/07 01:12:28;;;;;;;44.97;23.55;;;;;;;6.88;84.30;98257.38;3126918;28;20056;-67
2024/01/07 01:13:58;;;;;;;49.45;24.60;;;;;;;6.90;84.61;98224.50;3126494;28;20063;-67
2024/01/07 01:15:30;;;;;;;53.28;25.23;;;;;;;6.92;84.63;98220.09;3126620;28;20478;-66
2024/01/07 01:17:01;;;;;;;54.75;24.13;;;;;;;6.94;84.39;98228.56;3126446;28;20820;-66
2024/01/07 01:18:33;;;;;;;50.70;24.00;;;;;;;6.98;84.52;98231.81;3126847;28;20061;-66
2024/01/07 01:20:05;;;;;;;54.90;24.85;;;;;;;7.00;84.71;98240.34;3126646;28;20132;-65
2024/01/07 01:21:37;;;;;;;53.67;25.45;;;;;;;7.02;84.68;98243.69;3126415;28;20053;-65
2024/01/07 01:23:08;;;;;;;49.75;25.05;;;;;;;7.03;84.91;98241.00;3126527;28;20053;-65
2024/01/07 01:24:43;;;;;;;49.17;23.58;;;;;;;7.04;84.93;98234.94;3127654;28;20078;-65
2024/01/07 01:26:16;;;;;;;51.22;24.92;;;;;;;7.04;84.92;98237.53;3129099;28;20263;-65
2024/01/07 01:27:48;;;;;;;50.05;26.23;;;;;;;7.06;84.96;98237.41;3128934;28;20091;-66
2024/01/07 01:29:18;;;;;;;52.10;25.23;;;;;;;7.06;85.08;98233.06;3128741;28;20208;-67
2024/01/07 01:30:50;;;;;;;49.88;24.75;;;;;;;6.69;84.91;98168.78;3128704;28;20922;-65
2024/01/07 01:32:21;;;;;;;47.67;25.20;;;;;;;7.04;85.14;98215.97;3129239;28;20553;-67
2024/01/07 01:33:53;;;;;;;55.38;24.13;;;;;;;7.10;84.92;98220.81;3128720;28;20060;-67
2024/01/07 01:35:24;;;;;;;55.92;24.25;;;;;;;7.11;84.99;98211.28;3128840;28;20064;-66
2024/01/07 01:36:56;;;;;;;48.20;24.33;;;;;;;7.06;85.27;98189.06;3128830;28;20638;-67
2024/01/07 01:38:27;;;;;;;53.50;24.55;;;;;;;7.05;85.44;98196.94;3129150;28;20060;-66
2024/01/07 01:39:59;;;;;;;48.67;25.00;;;;;;;6.99;85.57;98182.59;3128686;28;20589;-66
2024/01/07 01:41:32;;;;;;;52.78;23.50;;;;;;;6.92;86.12;98173.50;3128777;28;20061;-67
2024/01/07 01:43:04;;;;;;;52.75;24.40;;;;;;;6.88;86.79;98160.81;3128889;28;20059;-67
2024/01/07 01:44:35;;;;;;;54.45;25.10;;;;;;;6.83;86.73;98161.91;3128494;28;20568;-66
2024/01/07 01:46:07;;;;;;;48.10;25.58;;;;;;;6.79;86.83;98164.75;3128694;28;20057;-67
2024/01/07 01:47:38;;;;;;;57.07;26.53;;;;;;;6.81;87.13;98157.75;3118373;28;20589;-66
2024/01/07 01:49:10;;;;;;;51.35;26.15;;;;;;;6.74;87.22;98130.53;3126171;28;20064;-68
2024/01/07 01:50:41;;;;;;;51.03;24.65;;;;;;;6.83;86.96;98145.53;3128884;28;20465;-67
2024/01/07 01:52:14;;;;;;;48.63;24.20;;;;;;;6.13;87.28;98019.28;3128781;28;20102;-67
2024/01/07 01:53:45;;;;;;;53.70;25.50;;;;;;;6.76;87.48;98141.63;3128550;28;20056;-67
2024/01/07 01:55:17;;;;;;;55.47;25.65;;;;;;;6.71;87.71;98130.72;3128988;28;20056;-67
2024/01/07 01:56:50;;;;;;;51.42;25.67;;;;;;;6.74;87.87;98125.34;3128521;28;20057;-67
2024/01/07 01:58:24;;;;;;;48.53;24.10;;;;;;;6.68;88.22;98136.06;3128701;28;20108;-67
2024/01/07 01:59:55;;;;;;;54.67;24.38;;;;;;;6.72;88.73;98135.81;3128599;28;20055;-67
2024/01/07 02:01:28;;;;;;;45.97;24.20;;;;;;;6.68;88.92;98139.47;3128910;28;20619;-67
2024/01/07 02:03:00;;;;;;;55.63;24.98;;;;;;;6.65;89.28;98141.41;3128907;28;20597;-67
2024/01/07 02:04:32;;;;;;;51.45;25.30;;;;;;;6.66;89.25;98137.91;3128994;28;20109;-66
2024/01/07 02:06:03;;;;;;;51.58;25.85;;;;;;;6.66;89.25;98124.97;3128931;28;20461;-66
2024/01/07 02:07:35;;;;;;;52.13;24.73;;;;;;;6.62;89.10;98113.94;3128842;28;20060;-66
2024/01/07 02:09:07;;;;;;;47.53;24.38;;;;;;;6.59;88.95;98099.44;3128479;28;20079;-66
2024/01/07 02:10:38;;;;;;;45.88;23.42;;;;;;;6.42;88.86;98057.34;3128736;28;20454;-67
2024/01/07 02:12:11;;;;;;;47.50;23.67;;;;;;;6.56;88.84;98089.25;3133582;28;20079;-67
2024/01/07 02:13:42;;;;;;;;;;;;;;;6.43;89.14;98098.63;3133826;28;20072;-67
2024/01/07 02:15:13;;;;;;;47.25;22.50;;;;;;;6.46;89.56;98090.72;3133783;28;19921;-67
2024/01/07 02:16:44;;;;;;;49.63;24.75;;;;;;;6.55;89.28;98097.94;3133560;28;20045;-67
2024/01/07 02:18:16;;;;;;;53.60;23.80;;;;;;;6.57;88.92;98096.13;3133896;28;20056;-67
2024/01/07 02:19:47;;;;;;;51.25;24.48;;;;;;;6.63;89.05;98094.13;3133689;28;20045;-67
2024/01/07 02:21:19;;;;;;;49.42;23.23;;;;;;;6.65;88.94;98084.50;3133546;28;20056;-67
2024/01/07 02:22:51;;;;;;;51.33;24.90;;;;;;;6.70;88.63;98079.91;3133807;28;20049;-67
2024/01/07 02:24:24;;;;;;;52.42;24.55;;;;;;;6.75;88.84;98077.91;3133764;28;20059;-67
2024/01/07 02:25:55;;;;;;;52.00;25.05;;;;;;;6.77;88.73;98083.78;3133250;28;20444;-68
2024/01/07 02:27:27;;;;;;;50.05;24.83;;;;;;;6.80;88.46;98086.19;3133472;28;20053;-68
2024/01/07 02:28:58;;;;;;;52.50;24.00;;;;;;;6.82;88.43;98087.78;3132923;28;20167;-69
2024/01/07 02:30:30;;;;;;;56.15;25.48;;;;;;;6.71;88.47;98058.28;3133585;28;20057;-67
2024/01/07 02:32:00;;;;;;;54.65;26.27;;;;;;;6.90;88.45;98082.19;3133615;28;20045;-69
2024/01/07 02:33:33;;;;;;;52.25;25.33;;;;;;;6.93;88.77;98065.66;3133265;28;20060;-67
2024/01/07 02:35:05;;;;;;;54.67;26.03;;;;;;;6.78;88.52;98023.38;3133338;28;20083;-68
2024/01/07 02:36:36;;;;;;;50.33;24.92;;;;;;;6.91;88.59;98024.31;3133577;28;20317;-68
2024/01/07 02:38:07;;;;;;;52.20;24.10;;;;;;;7.00;88.40;98030.72;3133446;28;20106;-70
2024/01/07 02:39:40;;;;;;;60.35;26.15;;;;;;;6.93;88.39;98004.38;3133404;28;20053;-68
2024/01/07 02:41:11;;;;;;;55.50;25.10;;;;;;;6.92;88.66;97994.09;3133158;28;20060;-68
2024/01/07 02:42:43;;;;;;;55.17;25.92;;;;;;;6.67;88.65;97943.81;3133185;28;20084;-67
2024/01/07 02:44:14;;;;;;;57.75;26.50;;;;;;;7.01;89.14;98007.34;3132960;28;20506;-67
2024/01/07 02:45:45;;;;;;;55.67;26.45;;;;;;;6.88;89.07;97983.09;3133094;28;20052;-67
2024/01/07 02:47:16;;;;;;;62.70;27.33;;;;;;;7.02;89.11;97993.47;3133250;28;20045;-68
2024/01/07 02:48:48;;;;;;;51.85;26.92;;;;;;;7.11;89.16;98010.22;3133089;28;20079;-69
2024/01/07 02:50:19;;;;;;;55.75;25.63;;;;;;;7.14;89.26;98017.78;3133370;28;20049;-68
2024/01/07 02:51:51;;;;;;;52.15;24.15;;;;;;;7.16;89.29;98017.69;3133278;28;20191;-68
2024/01/07 02:53:21;;;;;;;57.92;26.08;;;;;;;7.18;89.08;98005.50;3132973;28;20056;-69
2024/01/07 02:54:54;;;;;;;55.13;27.83;;;;;;;7.20;89.24;98003.66;3133247;28;20470;-68
2024/01/07 02:56:25;;;;;;;58.20;25.95;;;;;;;7.18;89.32;98011.50;3133321;28;20056;-69
2024/01/07 02:57:57;;;;;;;50.53;26.05;;;;;;;6.60;89.52;97933.00;3132911;28;20049;-68
2024/01/07 02:59:28;;;;;;;53.17;26.02;;;;;;;7.20;89.79;98029.53;3132856;28;20132;-69
2024/01/07 03:01:00;;;;;;;52.35;25.58;;;;;;;7.21;90.11;98029.44;3132690;28;20059;-69
2024/01/07 03:02:31;;;;;;;58.35;26.75;;;;;;;7.26;90.12;98018.81;3132865;28;20048;-68
2024/01/07 03:04:02;;;;;;;55.03;25.88;;;;;;;7.17;90.23;98003.84;3132986;28;20136;-69
2024/01/07 03:05:33;;;;;;;49.28;25.20;;;;;;;7.35;90.25;98038.16;3133086;28;20048;-68
2024/01/07 03:07:05;;;;;;;55.72;26.17;;;;;;;7.35;90.55;98045.91;3132849;28;20049;-68
2024/01/07 03:08:36;;;;;;;57.22;25.50;;;;;;;7.32;90.67;98025.38;3133334;28;20056;-68
2024/01/07 03:10:10;;;;;;;59.58;26.20;;;;;;;7.44;90.84;98038.41;3132850;28;20656;-65
2024/01/07 03:11:42;;;;;;;50.97;25.50;;;;;;;7.45;91.14;98039.25;3132811;28;20041;-68
2024/01/07 03:13:14;;;;;;;51.13;23.67;;;;;;;7.45;91.03;98034.94;3133100;28;20128;-70
2024/01/07 03:14:44;;;;;;;50.80;24.15;;;;;;;7.57;91.16;98048.03;3132652;28;20064;-67
2024/01/07 03:16:23;;;;;;;56.42;25.45;;;;;;;7.63;91.48;98037.28;3132916;28;20041;-68
2024/01/07 03:17:55;;;;;;;47.97;23.20;;;;;;;7.63;91.56;98029.53;3132608;28;20045;-67
2024/01/07 03:19:25;;;;;;;49.65;22.80;;;;;;;7.72;91.69;98040.16;3132718;28;20056;-67
2024/01/07 03:20:57;;;;;;;50.65;22.52;;;;;;;7.72;91.99;98029.81;3132704;28;20438;-66
2024/01/07 03:22:28;;;;;;;47.85;22.30;;;;;;;7.83;92.19;98042.06;3132898;28;20065;-66
2024/01/07 03:24:00;;;;;;;46.95;22.80;;;;;;;7.89;92.57;98038.28;3128295;28;20061;-65
2024/01/07 03:25:32;;;;;;;42.83;22.05;;;;;;;7.95;92.49;98032.72;3123991;28;20056;-66
2024/01/07 03:27:04;;;;;;;48.65;22.35;;;;;;;7.98;92.82;98032.50;3132854;28;20155;-65
2024/01/07 03:28:34;;;;;;;48.50;22.45;;;;;;;7.97;93.41;98008.34;3132738;28;20537;-67
2024/01/07 03:30:08;;;;;;;44.70;21.88;;;;;;;8.02;94.04;97989.94;3132494;28;20045;-68
2024/01/07 03:31:38;;;;;;;40.30;19.88;;;;;;;8.00;94.58;97976.22;3132603;28;20061;-67
2024/01/07 03:33:10;;;;;;;44.78;20.50;;;;;;;8.18;94.98;98007.94;3132678;28;20560;-66
2024/01/07 03:34:41;;;;;;;45.75;20.65;;;;;;;8.25;95.29;98011.78;3131336;28;20076;-66
2024/01/07 03:36:14;;;;;;;46.00;21.63;;;;;;;8.31;95.22;98006.22;3132428;28;20387;-66
2024/01/07 03:37:45;;;;;;;45.38;20.85;;;;;;;8.22;95.42;97980.84;3130526;28;20049;-66
2024/01/07 03:39:17;;;;;;;44.25;20.23;;;;;;;8.35;95.44;98002.50;3131490;28;20644;-66
2024/01/07 03:40:49;;;;;;;43.47;20.55;;;;;;;8.46;95.57;98006.16;3132655;28;20057;-65
2024/01/07 03:42:21;;;;;;;46.42;20.75;;;;;;;8.43;95.46;98000.28;3132479;28;20503;-66
2024/01/07 03:43:53;;;;;;;46.10;22.95;;;;;;;8.53;95.94;98008.28;3132138;28;20049;-66
2024/01/07 03:45:25;;;;;;;51.58;23.30;;;;;;;8.56;95.65;98007.25;3132388;28;20049;-66
2024/01/07 03:46:56;;;;;;;48.30;24.83;;;;;;;8.57;95.91;98014.09;3131799;28;20052;-66
2024/01/07 03:48:28;;;;;;;51.17;25.15;;;;;;;8.59;95.97;98009.63;3132597;28;20044;-67
2024/01/07 03:49:59;;;;;;;48.13;23.38;;;;;;;8.60;95.79;97996.53;3132370;28;20079;-67
2024/01/07 03:51:31;;;;;;;45.47;23.88;;;;;;;8.64;96.06;97984.22;3132333;28;20379;-66
2024/01/07 03:53:02;;;;;;;47.10;22.42;;;;;;;8.65;95.79;97965.13;3132172;28;20049;-66
2024/01/07 03:54:33;;;;;;;50.22;24.50;;;;;;;8.66;95.86;97959.81;3132299;28;20438;-67
2024/01/07 03:56:06;;;;;;;44.05;23.13;;;;;;;8.70;95.86;97978.63;3134700;28;20490;-67
2024/01/07 03:57:38;;;;;;;49.50;22.98;;;;;;;8.70;96.06;97998.56;3131865;28;20045;-67
2024/01/07 03:59:09;;;;;;;48.83;24.10;;;;;;;8.72;96.30;97997.50;3131539;28;20155;-66
2024/01/07 04:00:40;;;;;;;50.15;24.50;;;;;;;8.74;95.92;97998.25;3131005;28;20079;-67
2024/01/07 04:02:11;;;;;;;45.70;24.35;;;;;;;8.71;96.22;97992.44;3132165;28;20053;-67
2024/01/07 04:03:43;;;;;;;49.45;25.55;;;;;;;8.74;96.13;97995.66;3131946;28;20060;-67
2024/01/07 04:05:14;;;;;;;49.85;25.02;;;;;;;8.76;96.30;97985.19;3132256;28;20048;-67
2024/01/07 04:06:46;;;;;;;44.95;24.05;;;;;;;8.77;96.35;97959.09;3132455;28;20135;-66
2024/01/07 04:08:17;;;;;;;62.33;29.33;;;;;;;8.70;96.34;97944.91;3132288;28;20052;-66
2024/01/07 04:09:49;;;;;;;55.97;25.83;;;;;;;8.65;96.16;97928.78;3132358;28;20045;-66
2024/01/07 04:11:21;;;;;;;47.40;24.75;;;;;;;8.75;96.33;97939.38;3132252;28;20107;-66
2024/01/07 04:12:53;;;;;;;50.03;25.65;;;;;;;8.73;95.94;97939.50;3132297;28;20049;-67
2024/01/07 04:14:23;;;;;;;57.65;27.85;;;;;;;8.66;96.09;97931.28;3132084;28;20117;-67
2024/01/07 04:15:55;;;;;;;52.95;26.10;;;;;;;8.68;96.22;97930.34;3132116;28;20637;-67
2024/01/07 04:17:26;;;;;;;53.80;27.05;;;;;;;8.65;96.37;97914.06;3132033;28;20057;-66
2024/01/07 04:18:58;;;;;;;53.00;26.75;;;;;;;8.62;96.52;97908.25;3132232;28;20052;-68
2024/01/07 04:20:29;;;;;;;56.00;26.73;;;;;;;8.52;96.42;97896.81;3132203;28;20085;-68
2024/01/07 04:22:01;;;;;;;48.20;24.50;;;;;;;8.63;96.21;97921.09;3132004;28;20064;-68
2024/01/07 04:23:31;;;;;;;50.25;24.90;;;;;;;8.62;96.39;97937.59;3132107;28;20385;-67
2024/01/07 04:25:07;;;;;;;52.83;25.05;;;;;;;8.55;96.28;97951.13;3131853;28;20417;-68
2024/01/07 04:26:40;;;;;;;50.22;26.48;;;;;;;8.56;96.22;97955.34;3131748;28;20087;-67
2024/01/07 04:28:11;;;;;;;49.45;25.25;;;;;;;8.56;96.07;97956.19;3131935;28;20438;-67
2024/01/07 04:29:42;;;;;;;56.33;26.13;;;;;;;8.56;96.22;97948.41;3131612;28;20049;-67
2024/01/07 04:31:14;;;;;;;52.97;27.15;;;;;;;8.57;96.05;97946.63;3131666;28;20056;-68
2024/01/07 04:32:45;;;;;;;51.05;27.38;;;;;;;8.52;95.90;97939.16;3131917;28;20063;-68
2024/01/07 04:34:17;;;;;;;50.78;26.98;;;;;;;8.57;95.91;97936.25;3131545;28;20660;-68
2024/01/07 04:35:48;;;;;;;51.25;25.65;;;;;;;8.63;95.43;97946.22;3132054;28;20457;-68
2024/01/07 04:37:19;;;;;;;52.78;26.38;;;;;;;8.59;95.47;97955.97;3131828;28;20178;-68
2024/01/07 04:38:50;;;;;;;51.58;26.95;;;;;;;8.63;95.37;97959.19;3131403;28;20053;-67
2024/01/07 04:40:22;;;;;;;56.38;26.83;;;;;;;8.63;95.25;97961.78;3132062;28;20056;-65
2024/01/07 04:41:54;;;;;;;49.95;26.05;;;;;;;8.65;94.92;97962.53;3131734;28;20044;-65
2024/01/07 04:43:26;;;;;;;54.10;27.45;;;;;;;8.64;94.88;97974.69;3131886;28;20055;-65
2024/01/07 04:44:57;;;;;;;50.00;26.00;;;;;;;8.65;94.88;97983.28;3131641;28;20053;-65
2024/01/07 04:46:29;;;;;;;48.30;24.52;;;;;;;8.54;94.73;97957.22;3132261;28;20486;-65
2024/01/07 04:48:00;;;;;;;49.58;23.95;;;;;;;8.65;94.38;97972.91;3131844;28;20049;-65
2024/01/07 04:49:31;;;;;;;48.28;25.10;;;;;;;8.64;94.63;97969.50;3132042;28;20059;-67
2024/01/07 04:51:02;;;;;;;51.78;25.13;;;;;;;8.64;94.35;97953.91;3131989;28;20053;-65
2024/01/07 04:52:34;;;;;;;47.08;23.67;;;;;;;8.64;94.38;97947.91;3132165;28;20080;-67
2024/01/07 04:54:05;;;;;;;45.80;23.70;;;;;;;8.65;94.30;97947.78;3131777;28;20049;-64
2024/01/07 04:55:38;;;;;;;46.58;24.45;;;;;;;8.60;94.02;97930.84;3132004;28;20064;-65
2024/01/07 04:57:10;;;;;;;49.80;25.58;;;;;;;8.65;93.96;97923.59;3131584;28;20041;-65
2024/01/07 04:58:42;;;;;;;44.58;24.95;;;;;;;8.65;93.84;97926.19;3131934;28;20102;-64
2024/01/07 05:00:13;;;;;;;47.42;23.98;;;;;;;8.64;93.56;97922.78;3133736;28;20509;-66
2024/01/07 05:01:45;;;;;;;48.58;25.67;;;;;;;8.64;93.63;97929.75;3134631;28;20049;-65
2024/01/07 05:03:16;;;;;;;50.15;23.52;;;;;;;8.63;93.58;97935.84;3134286;28;20045;-65
2024/01/07 05:04:47;;;;;;;51.33;23.58;;;;;;;8.59;93.22;97926.63;3134821;28;20041;-65
2024/01/07 05:06:19;;;;;;;44.72;23.27;;;;;;;8.59;93.21;97931.81;3134561;28;20060;-66
2024/01/07 05:07:50;;;;;;;44.72;22.88;;;;;;;8.55;93.47;97935.53;3134359;28;20052;-65
2024/01/07 05:09:21;;;;;;;44.92;24.25;;;;;;;8.54;93.46;97945.06;3134640;28;20056;-66
2024/01/07 05:10:52;;;;;;;50.38;24.38;;;;;;;8.49;93.41;97939.38;3134401;28;20044;-66
2024/01/07 05:12:26;;;;;;;48.40;24.33;;;;;;;8.50;93.64;97942.78;3134420;28;20490;-66
2024/01/07 05:13:56;;;;;;;;;;;;;;;8.34;93.89;97946.38;3134627;28;20537;-66
2024/01/07 05:15:28;;;;;;;49.90;24.25;;;;;;;8.37;93.98;97943.59;3134842;28;19921;-66
2024/01/07 05:17:00;;;;;;;50.28;24.27;;;;;;;8.42;94.00;97933.75;3134438;28;20049;-65
2024/01/07 05:18:31;;;;;;;49.95;23.45;;;;;;;8.12;93.71;97886.47;3134671;28;20045;-67
2024/01/07 05:20:06;;;;;;;49.83;24.65;;;;;;;8.43;93.87;97925.03;3134498;28;20053;-67
2024/01/07 05:21:37;;;;;;;48.78;24.63;;;;;;;8.24;93.92;97893.44;3134415;28;20212;-67
2024/01/07 05:23:08;;;;;;;48.78;24.00;;;;;;;8.39;93.72;97926.16;3134564;28;20065;-69
2024/01/07 05:24:39;;;;;;;51.63;25.73;;;;;;;8.40;93.84;97925.25;3134483;28;20056;-68
2024/01/07 05:26:11;;;;;;;50.85;27.48;;;;;;;8.40;93.96;97932.19;3134381;28;20552;-68
2024/01/07 05:27:44;;;;;;;52.35;27.05;;;;;;;8.26;93.83;97920.09;3134377;28;20056;-68
2024/01/07 05:29:15;;;;;;;47.15;25.10;;;;;;;8.32;93.91;97931.84;3134030;28;20041;-68
2024/01/07 05:30:47;;;;;;;53.17;25.92;;;;;;;8.22;93.75;97926.41;3133853;28;20490;-67
2024/01/07 05:32:17;;;;;;;43.53;24.83;;;;;;;8.37;93.53;97951.34;3134627;28;20157;-67
2024/01/07 05:33:49;;;;;;;52.45;26.35;;;;;;;8.33;93.77;97939.50;3133947;28;20064;-67
2024/01/07 05:35:20;;;;;;;50.25;24.42;;;;;;;8.36;93.58;97931.53;3133828;28;20049;-70
2024/01/07 05:36:52;;;;;;;47.10;24.85;;;;;;;8.33;93.46;97908.38;3133897;28;20053;-67
2024/01/07 05:38:23;;;;;;;51.28;24.63;;;;;;;8.38;93.60;97919.31;3134207;28;20124;-67
2024/01/07 05:39:54;;;;;;;51.95;23.63;;;;;;;8.27;93.30;97908.78;3133979;28;20139;-67
2024/01/07 05:41:25;;;;;;;54.40;26.38;;;;;;;8.20;93.33;97907.53;3134085;28;20053;-67
2024/01/07 05:42:58;;;;;;;64.88;27.67;;;;;;;8.24;93.71;97923.72;3133968;28;20083;-68
2024/01/07 05:44:29;;;;;;;66.95;30.67;;;;;;;8.08;93.92;97903.16;3134018;28;20561;-69
2024/01/07 05:46:03;;;;;;;57.88;26.33;;;;;;;8.14;94.17;97928.69;3133669;28;20056;-69
2024/01/07 05:47:35;;;;;;;49.60;25.63;;;;;;;8.15;94.54;97922.56;3133931;28;20053;-69
2024/01/07 05:49:06;;;;;;;55.17;26.73;;;;;;;8.14;94.60;97920.91;3136299;28;20107;-68
2024/01/07 05:50:38;;;;;;;51.97;25.35;;;;;;;8.11;94.38;97919.34;3133379;28;20224;-63
2024/01/07 05:52:08;;;;;;;56.33;27.85;;;;;;;8.12;94.61;97925.34;3133705;28;20045;-68
2024/01/07 05:53:40;;;;;;;60.58;27.30;;;;;;;8.16;94.71;97935.44;3133772;28;20545;-67
2024/01/07 05:55:11;;;;;;;50.70;25.85;;;;;;;8.18;94.64;97935.31;3133741;28;20057;-66
2024/01/07 05:56:44;;;;;;;45.15;23.92;;;;;;;8.17;94.45;97957.00;3133947;28;20534;-68
2024/01/07 05:58:16;;;;;;;46.72;23.52;;;;;;;8.13;94.55;97950.34;3133884;28;20041;-65
2024/01/07 05:59:47;;;;;;;44.97;23.88;;;;;;;8.02;94.33;97934.69;3133483;28;20557;-66
2024/01/07 06:01:20;;;;;;;47.53;24.30;;;;;;;8.16;94.62;97951.00;3123997;28;20430;-64
2024/01/07 06:02:51;;;;;;;43.20;22.73;;;;;;;8.17;94.59;97944.03;3132906;28;20057;-65
2024/01/07 06:04:22;;;;;;;50.38;25.05;;;;;;;8.14;94.50;97941.66;3134021;28;20053;-63
2024/01/07 06:05:54;;;;;;;49.80;25.33;;;;;;;8.18;94.48;97945.69;3133814;28;20422;-64
2024/01/07 06:07:25;;;;;;;43.05;24.40;;;;;;;8.19;94.64;97943.03;3133531;28;20074;-64
2024/01/07 06:08:56;;;;;;;46.20;23.60;;;;;;;8.21;94.24;97928.16;3133535;28;20819;-63
2024/01/07 06:10:28;;;;;;;46.00;23.73;;;;;;;8.21;94.57;97906.59;3133396;28;20079;-68
2024/01/07 06:11:59;;;;;;;45.10;23.65;;;;;;;8.23;94.57;97902.16;3133060;28;20506;-74
2024/01/07 06:13:32;;;;;;;43.35;22.55;;;;;;;8.22;94.59;97892.69;3133563;28;20045;-67
2024/01/07 06:15:05;;;;;;;39.95;21.90;;;;;;;8.24;94.67;97902.97;3133449;28;20071;-68
2024/01/07 06:16:37;;;;;;;45.20;21.88;;;;;;;8.23;94.64;97909.09;3132924;28;20158;-69
2024/01/07 06:18:07;;;;;;;45.67;22.27;;;;;;;8.21;95.45;97916.97;3132251;28;20533;-68
2024/01/07 06:19:39;;;;;;;47.05;22.70;;;;;;;8.17;95.67;97915.53;3131885;28;20045;-67
2024/01/07 06:21:10;;;;;;;45.78;25.23;;;;;;;8.25;96.11;97944.34;3132354;28;20123;-67
2024/01/07 06:22:42;;;;;;;46.85;24.77;;;;;;;8.23;95.83;97948.00;3132237;28;20509;-69
2024/01/07 06:24:13;;;;;;;51.13;25.58;;;;;;;8.31;96.16;97949.16;3132290;28;20073;-69
2024/01/07 06:25:45;;;;;;;47.90;23.35;;;;;;;8.35;96.25;97937.66;3131755;28;20644;-68
2024/01/07 06:27:15;;;;;;;50.22;23.65;;;;;;;8.36;96.16;97954.88;3132213;28;20057;-68
2024/01/07 06:28:49;;;;;;;52.53;23.15;;;;;;;8.42;96.53;97943.28;3131452;28;20561;-69
2024/01/07 06:30:20;;;;;;;51.70;23.80;;;;;;;8.46;96.44;97938.72;3132227;28;20132;-68
2024/01/07 06:31:52;;;;;;;42.80;22.17;;;;;;;8.50;96.85;97917.69;3131279;28;20049;-68
2024/01/07 06:33:23;;;;;;;44.58;23.45;;;;;;;8.65;96.77;97936.56;3131130;28;20140;-69
2024/01/07 06:34:54;;;;;;;43.10;21.95;;;;;;;8.74;96.87;97940.31;3132915;28;20053;-69
2024/01/07 06:36:26;;;;;;;44.72;23.35;;;;;;;8.81;96.61;97924.22;3133411;28;20458;-68
2024/01/07 06:37:57;;;;;;;47.92;22.58;;;;;;;8.91;96.82;97919.25;3132161;28;20060;-73
2024/01/07 06:39:29;;;;;;;44.63;22.90;;;;;;;9.01;96.89;97924.63;3131967;28;20394;-69
2024/01/07 06:41:03;;;;;;;53.10;26.88;;;;;;;9.10;96.81;97918.81;3133144;28;20174;-72
2024/01/07 06:42:36;;;;;;;49.05;25.33;;;;;;;9.20;96.82;97909.44;3132328;28;21526;-72
2024/01/07 06:44:09;;;;;;;48.40;25.40;;;;;;;9.32;96.49;97903.41;3131508;28;20472;-74
2024/01/07 06:45:40;;;;;;;42.30;22.95;;;;;;;9.43;96.34;97899.19;3132025;28;20057;-69
2024/01/07 06:47:11;;;;;;;40.28;22.38;;;;;;;9.55;96.46;97898.31;3133165;28;20802;-68
2024/01/07 06:48:42;;;;;;;41.13;23.73;;;;;;;9.66;95.77;97898.38;3133309;28;20057;-69
2024/01/07 06:50:14;;;;;;;41.58;22.75;;;;;;;9.65;95.74;97888.13;3128927;28;20513;-71
2024/01/07 06:51:46;;;;;;;42.88;22.48;;;;;;;9.75;95.38;97908.13;3125553;28;20437;-65
2024/01/07 06:53:17;;;;;;;98.30;50.13;;;;;;;9.94;94.69;97923.25;3128425;28;20075;-71
2024/01/07 06:54:49;;;;;;;94.35;45.45;;;;;;;9.96;94.53;97910.13;3130936;28;20445;-68
2024/01/07 06:56:19;;;;;;;124.25;62.83;;;;;;;10.08;94.68;97930.03;3129035;28;20060;-71
2024/01/07 06:57:51;;;;;;;53.25;30.15;;;;;;;10.14;94.19;97939.16;3131333;28;20060;-70
2024/01/07 06:59:23;;;;;;;118.80;56.22;;;;;;;10.20;94.14;97949.09;3131428;28;20060;-69
2024/01/07 07:00:55;;;;;;;69.47;36.80;;;;;;;10.27;94.40;97955.56;3131068;28;20136;-71
2024/01/07 07:02:26;;;;;;;50.20;29.08;;;;;;;10.33;93.89;97962.91;3133038;28;20052;-70
2024/01/07 07:03:58;;;;;;;44.45;23.90;;;;;;;10.37;93.62;97963.50;3129872;28;20048;-70
2024/01/07 07:05:29;;;;;;;41.22;22.50;;;;;;;10.33;93.43;97962.09;3131902;28;20049;-67
2024/01/07 07:07:01;;;;;;;42.15;21.80;;;;;;;10.29;93.41;97965.84;3132580;28;20749;-69